Airfield :
LOGIN :

Register | Disclaimer

   EN    FR    IT 

 










Legend :    VFR   Marginal VFR   IFR   Intensive IFR   Very Intensive IFR
Visi :
Ceiling :
>= 8 km
>= 3000ft
5 to 8 km
1000 to 3000 ft
1500m to 5 km
500 to 1000 ft
800 to 1500m
200 to 500 ft
< 800m
< 200 ft
Symbols :   Thunderstorms  Fog  Heavy snow  Heavy precipitations  Wind > 20 kt
SIGMETs :     Misc.  Thunderstorms  Icing  Turbulence  Mountain Waves  Volcanic Ashes






- Airport Elevation : 1548 ft


LKNA - Náměšť Air Base

CURRENT METAR :
  • 130400Z 11009KT 0100 R31/0300 FZFG VV001 M02/M02 Q0992 NOSIG RMK RED RED

EXPIRED METARs :
  • 130300Z 11008KT 0100 R31/0300 FZFG VV001 M02/M03 Q0993
  • 130200Z 12008KT 0200 R31/0300 -SN FZFG VV001 M02/M03 Q0995

TAF TAF LKNA
Valid from the 13 at 00:00 until the 14 at 00:00 UTC


122300Z 1300/1400 10005KT 0800 FZFG VV002
TEMPO1303/1312 2000 -SN OVC004
BECMG 1306/1308 15012KT 1500 BR OVC002
TEMPO 1306/1316 15015G30KT
BECMG 1313/1315 8000 BKN020
BECMG 1316/1318 3000 BR BKN010



MET'MAP, your aeronautical weather chart ! - Copyright ORBIFLY December 2007 - Disclaimer

ORBIFLY MET'MAP TEAM :

Programming & Development : Alexandra Zaïnal
Concept & original design : Baudouin d'Aumeries
Assistance for programming : Marc-Olivier Méhu
Technical & hardware support : Manuel Goepfert

Contact : metmap@orbifly.com




SOURCES & CREDITS :

   NOAA